sensor_id;sensor_type;location;lat;lon;timestamp;temperature;humidity
8563;DHT22;16392;52.508;13.468;2023-04-03T00:00:18;1.60;99.90
8563;DHT22;16392;52.508;13.468;2023-04-03T00:02:45;1.60;99.90
8563;DHT22;16392;52.508;13.468;2023-04-03T00:05:11;1.60;99.90
8563;DHT22;16392;52.508;13.468;2023-04-03T00:07:38;1.60;99.90
8563;DHT22;16392;52.508;13.468;2023-04-03T00:10:07;1.70;99.50
8563;DHT22;16392;52.508;13.468;2023-04-03T00:12:34;1.60;99.90
8563;DHT22;16392;52.508;13.468;2023-04-03T00:15:02;1.50;99.90
8563;DHT22;16392;52.508;13.468;2023-04-03T00:17:30;1.50;1.00
8563;DHT22;16392;52.508;13.468;2023-04-03T00:19:56;1.50;99.90
8563;DHT22;16392;52.508;13.468;2023-04-03T00:22:23;1.50;99.90
8563;DHT22;16392;52.508;13.468;2023-04-03T00:24:52;1.40;99.90
8563;DHT22;16392;52.508;13.468;2023-04-03T00:27:18;1.40;99.90
8563;DHT22;16392;52.508;13.468;2023-04-03T00:29:45;1.50;1.00
8563;DHT22;16392;52.508;13.468;2023-04-03T00:32:12;1.50;1.00
8563;DHT22;16392;52.508;13.468;2023-04-03T00:34:39;1.50;1.00
8563;DHT22;16392;52.508;13.468;2023-04-03T00:37:06;1.40;1.00
8563;DHT22;16392;52.508;13.468;2023-04-03T00:39:32;1.40;99.90
8563;DHT22;16392;52.508;13.468;2023-04-03T00:41:59;1.30;99.90
8563;DHT22;16392;52.508;13.468;2023-04-03T00:47:08;1.20;99.90
8563;DHT22;16392;52.508;13.468;2023-04-03T00:49:36;1.30;1.00
8563;DHT22;16392;52.508;13.468;2023-04-03T00:52:03;1.40;99.90
8563;DHT22;16392;52.508;13.468;2023-04-03T00:54:31;1.40;1.00
8563;DHT22;16392;52.508;13.468;2023-04-03T00:56:58;1.40;1.00
8563;DHT22;16392;52.508;13.468;2023-04-03T00:59:27;1.40;1.00
8563;DHT22;16392;52.508;13.468;2023-04-03T01:01:56;1.30;99.90
8563;DHT22;16392;52.508;13.468;2023-04-03T01:04:26;1.30;99.90
8563;DHT22;16392;52.508;13.468;2023-04-03T01:06:55;1.30;1.00
8563;DHT22;16392;52.508;13.468;2023-04-03T01:09:22;1.30;99.90
8563;DHT22;16392;52.508;13.468;2023-04-03T01:11:49;1.30;1.00
8563;DHT22;16392;52.508;13.468;2023-04-03T01:14:15;1.20;99.90
8563;DHT22;16392;52.508;13.468;2023-04-03T01:16:41;1.30;99.90
8563;DHT22;16392;52.508;13.468;2023-04-03T01:19:09;1.30;99.90
8563;DHT22;16392;52.508;13.468;2023-04-03T01:21:41;1.20;99.90
8563;DHT22;16392;52.508;13.468;2023-04-03T01:24:20;1.30;99.90
8563;DHT22;16392;52.508;13.468;2023-04-03T01:26:48;1.20;99.90
8563;DHT22;16392;52.508;13.468;2023-04-03T01:29:15;1.20;99.90
8563;DHT22;16392;52.508;13.468;2023-04-03T01:31:50;1.30;99.90
8563;DHT22;16392;52.508;13.468;2023-04-03T01:34:17;1.10;99.90
8563;DHT22;16392;52.508;13.468;2023-04-03T01:36:43;1.00;1.00
8563;DHT22;16392;52.508;13.468;2023-04-03T01:39:10;0.90;76.30
8563;DHT22;16392;52.508;13.468;2023-04-03T01:41:37;0.90;99.90
8563;DHT22;16392;52.508;13.468;2023-04-03T01:44:03;1.00;99.90
8563;DHT22;16392;52.508;13.468;2023-04-03T01:46:30;0.90;99.90
8563;DHT22;16392;52.508;13.468;2023-04-03T01:48:58;1.00;99.90
8563;DHT22;16392;52.508;13.468;2023-04-03T01:51:24;0.90;1.00
8563;DHT22;16392;52.508;13.468;2023-04-03T01:53:51;0.90;1.00
8563;DHT22;16392;52.508;13.468;2023-04-03T01:56:17;0.90;1.00
8563;DHT22;16392;52.508;13.468;2023-04-03T01:58:45;0.90;99.90
8563;DHT22;16392;52.508;13.468;2023-04-03T02:01:11;1.00;99.90
8563;DHT22;16392;52.508;13.468;2023-04-03T02:03:38;1.10;99.90
8563;DHT22;16392;52.508;13.468;2023-04-03T02:06:06;1.10;99.90
8563;DHT22;16392;52.508;13.468;2023-04-03T02:08:32;1.00;99.90
8563;DHT22;16392;52.508;13.468;2023-04-03T02:10:59;1.00;1.00
8563;DHT22;16392;52.508;13.468;2023-04-03T02:13:26;0.80;1.00
8563;DHT22;16392;52.508;13.468;2023-04-03T02:15:53;0.80;99.90
8563;DHT22;16392;52.508;13.468;2023-04-03T02:18:19;0.70;1.00
8563;DHT22;16392;52.508;13.468;2023-04-03T02:20:46;0.60;99.90
8563;DHT22;16392;52.508;13.468;2023-04-03T02:23:13;0.60;77.00
8563;DHT22;16392;52.508;13.468;2023-04-03T02:25:40;0.70;99.90
8563;DHT22;16392;52.508;13.468;2023-04-03T02:28:07;0.80;23.10
8563;DHT22;16392;52.508;13.468;2023-04-03T02:30:33;0.80;1.00
8563;DHT22;16392;52.508;13.468;2023-04-03T02:32:59;0.80;1.00
8563;DHT22;16392;52.508;13.468;2023-04-03T02:35:26;0.80;1.00
8563;DHT22;16392;52.508;13.468;2023-04-03T02:37:53;0.80;1.00
8563;DHT22;16392;52.508;13.468;2023-04-03T02:40:21;0.80;1.00
8563;DHT22;16392;52.508;13.468;2023-04-03T02:42:48;0.80;1.00
8563;DHT22;16392;52.508;13.468;2023-04-03T02:45:14;0.70;46.30
8563;DHT22;16392;52.508;13.468;2023-04-03T02:47:41;0.80;47.60
8563;DHT22;16392;52.508;13.468;2023-04-03T02:50:09;0.70;1.00
8563;DHT22;16392;52.508;13.468;2023-04-03T02:52:35;0.80;1.00
8563;DHT22;16392;52.508;13.468;2023-04-03T02:55:03;0.80;1.00
8563;DHT22;16392;52.508;13.468;2023-04-03T02:57:31;0.70;1.00
8563;DHT22;16392;52.508;13.468;2023-04-03T02:59:58;0.60;99.90
8563;DHT22;16392;52.508;13.468;2023-04-03T03:02:25;0.60;1.00
8563;DHT22;16392;52.508;13.468;2023-04-03T03:04:51;0.50;1.00
8563;DHT22;16392;52.508;13.468;2023-04-03T03:07:18;0.40;99.90
8563;DHT22;16392;52.508;13.468;2023-04-03T03:09:44;0.40;1.00
8563;DHT22;16392;52.508;13.468;2023-04-03T03:12:11;0.40;1.00
8563;DHT22;16392;52.508;13.468;2023-04-03T03:14:39;0.40;1.00
8563;DHT22;16392;52.508;13.468;2023-04-03T03:17:05;0.30;1.00
8563;DHT22;16392;52.508;13.468;2023-04-03T03:19:32;0.30;99.90
8563;DHT22;16392;52.508;13.468;2023-04-03T03:21:59;0.20;1.00
8563;DHT22;16392;52.508;13.468;2023-04-03T03:24:25;0.20;1.00
8563;DHT22;16392;52.508;13.468;2023-04-03T03:26:52;0.20;1.00
8563;DHT22;16392;52.508;13.468;2023-04-03T03:29:18;0.30;1.00
8563;DHT22;16392;52.508;13.468;2023-04-03T03:31:46;0.30;99.90
8563;DHT22;16392;52.508;13.468;2023-04-03T03:34:13;0.30;99.90
8563;DHT22;16392;52.508;13.468;2023-04-03T03:36:39;0.30;99.90
8563;DHT22;16392;52.508;13.468;2023-04-03T03:39:06;0.20;99.90
8563;DHT22;16392;52.508;13.468;2023-04-03T03:41:33;0.20;99.90
8563;DHT22;16392;52.508;13.468;2023-04-03T03:44:00;0.20;99.90
8563;DHT22;16392;52.508;13.468;2023-04-03T03:46:26;0.30;99.90
8563;DHT22;16392;52.508;13.468;2023-04-03T03:48:54;0.30;99.90
8563;DHT22;16392;52.508;13.468;2023-04-03T03:51:20;0.20;40.30
8563;DHT22;16392;52.508;13.468;2023-04-03T03:53:47;0.20;19.60
8563;DHT22;16392;52.508;13.468;2023-04-03T03:56:13;0.20;99.90
8563;DHT22;16392;52.508;13.468;2023-04-03T03:58:40;0.20;99.90
8563;DHT22;16392;52.508;13.468;2023-04-03T04:01:07;0.20;3.40
8563;DHT22;16392;52.508;13.468;2023-04-03T04:03:33;0.20;42.20
8563;DHT22;16392;52.508;13.468;2023-04-03T04:06:01;0.10;99.90
8563;DHT22;16392;52.508;13.468;2023-04-03T04:08:27;0.00;1.00
8563;DHT22;16392;52.508;13.468;2023-04-03T04:10:54;0.00;99.90
8563;DHT22;16392;52.508;13.468;2023-04-03T04:13:20;-0.10;1.00
8563;DHT22;16392;52.508;13.468;2023-04-03T04:15:47;-0.10;99.90
8563;DHT22;16392;52.508;13.468;2023-04-03T04:18:13;-0.20;99.90
8563;DHT22;16392;52.508;13.468;2023-04-03T04:20:40;-0.10;1.00
8563;DHT22;16392;52.508;13.468;2023-04-03T04:23:08;-0.10;1.00
8563;DHT22;16392;52.508;13.468;2023-04-03T04:25:34;-0.20;1.00
8563;DHT22;16392;52.508;13.468;2023-04-03T04:28:01;-0.20;1.00
8563;DHT22;16392;52.508;13.468;2023-04-03T04:30:28;-0.10;1.00
8563;DHT22;16392;52.508;13.468;2023-04-03T04:32:55;-0.10;1.00
8563;DHT22;16392;52.508;13.468;2023-04-03T04:35:21;0.00;1.00
8563;DHT22;16392;52.508;13.468;2023-04-03T04:37:48;0.00;1.00
8563;DHT22;16392;52.508;13.468;2023-04-03T04:40:16;0.00;1.00
8563;DHT22;16392;52.508;13.468;2023-04-03T04:42:43;0.00;1.00
8563;DHT22;16392;52.508;13.468;2023-04-03T04:45:12;0.00;1.00
8563;DHT22;16392;52.508;13.468;2023-04-03T04:47:40;-0.10;99.90
8563;DHT22;16392;52.508;13.468;2023-04-03T04:50:06;0.00;99.90
8563;DHT22;16392;52.508;13.468;2023-04-03T04:52:33;0.00;99.90
8563;DHT22;16392;52.508;13.468;2023-04-03T04:55:00;0.20;99.90
8563;DHT22;16392;52.508;13.468;2023-04-03T04:57:27;0.40;1.00
8563;DHT22;16392;52.508;13.468;2023-04-03T04:59:54;0.70;1.00
8563;DHT22;16392;52.508;13.468;2023-04-03T05:02:20;1.10;75.60
8563;DHT22;16392;52.508;13.468;2023-04-03T05:04:47;1.40;99.90
8563;DHT22;16392;52.508;13.468;2023-04-03T05:07:15;1.40;1.00
8563;DHT22;16392;52.508;13.468;2023-04-03T05:09:41;1.60;99.90
8563;DHT22;16392;52.508;13.468;2023-04-03T05:12:10;2.20;1.00
8563;DHT22;16392;52.508;13.468;2023-04-03T05:14:38;2.50;1.00
8563;DHT22;16392;52.508;13.468;2023-04-03T05:17:07;3.00;1.00
8563;DHT22;16392;52.508;13.468;2023-04-03T05:19:33;3.30;99.90
8563;DHT22;16392;52.508;13.468;2023-04-03T05:22:03;3.20;1.00
8563;DHT22;16392;52.508;13.468;2023-04-03T05:24:30;3.50;1.00
8563;DHT22;16392;52.508;13.468;2023-04-03T05:26:57;3.30;1.00
8563;DHT22;16392;52.508;13.468;2023-04-03T05:29:23;3.10;1.00
8563;DHT22;16392;52.508;13.468;2023-04-03T05:31:51;3.00;1.00
8563;DHT22;16392;52.508;13.468;2023-04-03T05:34:18;3.00;93.60
8563;DHT22;16392;52.508;13.468;2023-04-03T05:36:44;3.80;1.00
8563;DHT22;16392;52.508;13.468;2023-04-03T05:39:11;4.30;99.90
8563;DHT22;16392;52.508;13.468;2023-04-03T05:41:37;4.40;99.90
8563;DHT22;16392;52.508;13.468;2023-04-03T05:44:04;3.90;1.00
8563;DHT22;16392;52.508;13.468;2023-04-03T05:46:31;4.40;99.90
8563;DHT22;16392;52.508;13.468;2023-04-03T05:48:58;4.90;99.90
8563;DHT22;16392;52.508;13.468;2023-04-03T05:51:27;4.70;99.90
8563;DHT22;16392;52.508;13.468;2023-04-03T05:53:56;4.30;99.90
8563;DHT22;16392;52.508;13.468;2023-04-03T05:56:25;4.40;99.90
8563;DHT22;16392;52.508;13.468;2023-04-03T05:58:52;4.70;99.90
8563;DHT22;16392;52.508;13.468;2023-04-03T06:01:18;4.80;99.90
8563;DHT22;16392;52.508;13.468;2023-04-03T06:03:45;4.50;99.90
8563;DHT22;16392;52.508;13.468;2023-04-03T06:06:13;5.00;99.90
8563;DHT22;16392;52.508;13.468;2023-04-03T06:08:40;4.60;99.90
8563;DHT22;16392;52.508;13.468;2023-04-03T06:11:07;4.50;99.90
8563;DHT22;16392;52.508;13.468;2023-04-03T06:13:34;4.90;99.90
8563;DHT22;16392;52.508;13.468;2023-04-03T06:16:01;5.60;25.00
8563;DHT22;16392;52.508;13.468;2023-04-03T06:18:29;5.30;1.00
8563;DHT22;16392;52.508;13.468;2023-04-03T06:20:55;5.50;1.00
8563;DHT22;16392;52.508;13.468;2023-04-03T06:23:24;5.40;1.00
8563;DHT22;16392;52.508;13.468;2023-04-03T06:25:54;4.40;99.90
8563;DHT22;16392;52.508;13.468;2023-04-03T06:28:21;4.40;99.90
8563;DHT22;16392;52.508;13.468;2023-04-03T06:30:47;5.20;99.90
8563;DHT22;16392;52.508;13.468;2023-04-03T06:33:14;6.50;1.00
8563;DHT22;16392;52.508;13.468;2023-04-03T06:35:40;6.80;1.00
8563;DHT22;16392;52.508;13.468;2023-04-03T06:38:07;6.40;1.00
8563;DHT22;16392;52.508;13.468;2023-04-03T06:40:36;6.30;1.00
8563;DHT22;16392;52.508;13.468;2023-04-03T06:43:02;6.60;1.00
8563;DHT22;16392;52.508;13.468;2023-04-03T06:45:29;6.50;1.00
8563;DHT22;16392;52.508;13.468;2023-04-03T06:47:55;6.20;1.00
8563;DHT22;16392;52.508;13.468;2023-04-03T06:50:22;6.80;1.00
8563;DHT22;16392;52.508;13.468;2023-04-03T06:52:49;6.70;1.00
8563;DHT22;16392;52.508;13.468;2023-04-03T06:55:16;5.70;1.00
8563;DHT22;16392;52.508;13.468;2023-04-03T06:57:44;5.40;1.00
8563;DHT22;16392;52.508;13.468;2023-04-03T07:00:11;5.60;1.00
8563;DHT22;16392;52.508;13.468;2023-04-03T07:02:38;5.50;1.00
8563;DHT22;16392;52.508;13.468;2023-04-03T07:05:05;5.90;1.00
8563;DHT22;16392;52.508;13.468;2023-04-03T07:07:32;6.50;1.00
8563;DHT22;16392;52.508;13.468;2023-04-03T07:09:59;5.60;1.00
8563;DHT22;16392;52.508;13.468;2023-04-03T07:12:25;5.50;1.00
8563;DHT22;16392;52.508;13.468;2023-04-03T07:14:53;5.70;1.00
8563;DHT22;16392;52.508;13.468;2023-04-03T07:17:20;6.10;1.00
8563;DHT22;16392;52.508;13.468;2023-04-03T07:19:46;5.70;1.00
8563;DHT22;16392;52.508;13.468;2023-04-03T07:22:13;6.20;1.00
8563;DHT22;16392;52.508;13.468;2023-04-03T07:24:39;6.30;1.00
8563;DHT22;16392;52.508;13.468;2023-04-03T07:27:06;6.20;1.00
8563;DHT22;16392;52.508;13.468;2023-04-03T07:29:33;5.90;1.00
8563;DHT22;16392;52.508;13.468;2023-04-03T07:32:01;6.30;1.00
8563;DHT22;16392;52.508;13.468;2023-04-03T07:34:28;6.20;1.00
8563;DHT22;16392;52.508;13.468;2023-04-03T07:36:54;6.00;1.00
8563;DHT22;16392;52.508;13.468;2023-04-03T07:39:21;6.70;1.00
8563;DHT22;16392;52.508;13.468;2023-04-03T07:41:48;7.10;1.00
8563;DHT22;16392;52.508;13.468;2023-04-03T07:44:14;7.10;1.00
8563;DHT22;16392;52.508;13.468;2023-04-03T07:46:41;6.70;1.00
8563;DHT22;16392;52.508;13.468;2023-04-03T07:49:09;6.00;1.00
8563;DHT22;16392;52.508;13.468;2023-04-03T07:51:35;5.80;1.00
8563;DHT22;16392;52.508;13.468;2023-04-03T07:54:02;6.50;1.00
8563;DHT22;16392;52.508;13.468;2023-04-03T07:56:29;6.20;1.00
8563;DHT22;16392;52.508;13.468;2023-04-03T07:58:55;6.10;1.00
8563;DHT22;16392;52.508;13.468;2023-04-03T08:01:22;6.00;1.00
8563;DHT22;16392;52.508;13.468;2023-04-03T08:03:48;5.50;1.00
8563;DHT22;16392;52.508;13.468;2023-04-03T08:06:17;5.20;1.00
8563;DHT22;16392;52.508;13.468;2023-04-03T08:08:43;4.60;1.00
8563;DHT22;16392;52.508;13.468;2023-04-03T08:11:11;5.10;1.00
8563;DHT22;16392;52.508;13.468;2023-04-03T08:13:37;4.70;1.00
8563;DHT22;16392;52.508;13.468;2023-04-03T08:16:07;4.70;1.00
8563;DHT22;16392;52.508;13.468;2023-04-03T08:18:34;4.70;1.00
8563;DHT22;16392;52.508;13.468;2023-04-03T08:21:00;4.80;1.00
8563;DHT22;16392;52.508;13.468;2023-04-03T08:23:28;5.10;1.00
8563;DHT22;16392;52.508;13.468;2023-04-03T08:26:05;5.40;1.00
8563;DHT22;16392;52.508;13.468;2023-04-03T08:28:32;5.20;1.00
8563;DHT22;16392;52.508;13.468;2023-04-03T08:31:01;4.60;1.00
8563;DHT22;16392;52.508;13.468;2023-04-03T08:33:28;4.70;1.00
8563;DHT22;16392;52.508;13.468;2023-04-03T08:35:54;4.50;1.00
8563;DHT22;16392;52.508;13.468;2023-04-03T08:38:21;4.40;1.00
8563;DHT22;16392;52.508;13.468;2023-04-03T08:40:49;4.30;1.00
8563;DHT22;16392;52.508;13.468;2023-04-03T08:43:28;4.30;1.00
8563;DHT22;16392;52.508;13.468;2023-04-03T08:45:57;4.00;1.00
8563;DHT22;16392;52.508;13.468;2023-04-03T08:48:26;3.90;1.00
8563;DHT22;16392;52.508;13.468;2023-04-03T08:50:55;3.90;1.00
8563;DHT22;16392;52.508;13.468;2023-04-03T08:53:23;4.00;1.00
8563;DHT22;16392;52.508;13.468;2023-04-03T08:55:53;4.10;1.00
8563;DHT22;16392;52.508;13.468;2023-04-03T08:58:21;4.30;1.00
8563;DHT22;16392;52.508;13.468;2023-04-03T09:00:48;4.70;1.00
8563;DHT22;16392;52.508;13.468;2023-04-03T09:03:17;4.60;1.00
8563;DHT22;16392;52.508;13.468;2023-04-03T09:05:45;4.30;1.00
8563;DHT22;16392;52.508;13.468;2023-04-03T09:08:14;4.20;1.00
8563;DHT22;16392;52.508;13.468;2023-04-03T09:10:44;4.30;1.00
8563;DHT22;16392;52.508;13.468;2023-04-03T09:13:13;4.50;1.00
8563;DHT22;16392;52.508;13.468;2023-04-03T09:15:45;5.00;1.00
8563;DHT22;16392;52.508;13.468;2023-04-03T09:18:13;5.80;1.00
8563;DHT22;16392;52.508;13.468;2023-04-03T09:20:43;6.70;1.00
8563;DHT22;16392;52.508;13.468;2023-04-03T09:23:13;7.10;1.00
8563;DHT22;16392;52.508;13.468;2023-04-03T09:25:41;7.00;1.00
8563;DHT22;16392;52.508;13.468;2023-04-03T09:28:09;6.60;1.00
8563;DHT22;16392;52.508;13.468;2023-04-03T09:30:37;6.00;1.00
8563;DHT22;16392;52.508;13.468;2023-04-03T09:33:04;5.60;1.00
8563;DHT22;16392;52.508;13.468;2023-04-03T09:35:32;5.30;1.00
8563;DHT22;16392;52.508;13.468;2023-04-03T09:37:59;5.60;1.00
8563;DHT22;16392;52.508;13.468;2023-04-03T09:40:33;5.80;1.00
8563;DHT22;16392;52.508;13.468;2023-04-03T09:43:01;5.90;1.00
8563;DHT22;16392;52.508;13.468;2023-04-03T09:45:29;5.90;1.00
8563;DHT22;16392;52.508;13.468;2023-04-03T09:48:08;6.00;1.00
8563;DHT22;16392;52.508;13.468;2023-04-03T09:50:35;5.70;1.00
8563;DHT22;16392;52.508;13.468;2023-04-03T09:53:06;5.50;1.00
8563;DHT22;16392;52.508;13.468;2023-04-03T09:55:33;5.60;1.00
8563;DHT22;16392;52.508;13.468;2023-04-03T09:58:24;5.30;1.00
8563;DHT22;16392;52.508;13.468;2023-04-03T10:00:53;5.30;1.00
8563;DHT22;16392;52.508;13.468;2023-04-03T10:03:24;5.40;1.00
8563;DHT22;16392;52.508;13.468;2023-04-03T10:05:51;5.50;1.00
8563;DHT22;16392;52.508;13.468;2023-04-03T10:08:22;5.90;1.00
8563;DHT22;16392;52.508;13.468;2023-04-03T10:11:04;6.50;1.00
8563;DHT22;16392;52.508;13.468;2023-04-03T10:13:31;6.00;1.00
8563;DHT22;16392;52.508;13.468;2023-04-03T10:15:59;5.80;1.00
8563;DHT22;16392;52.508;13.468;2023-04-03T10:18:31;5.80;1.00
8563;DHT22;16392;52.508;13.468;2023-04-03T10:20:59;5.60;1.00
8563;DHT22;16392;52.508;13.468;2023-04-03T10:23:29;5.60;1.00
8563;DHT22;16392;52.508;13.468;2023-04-03T10:26:00;5.90;1.00
8563;DHT22;16392;52.508;13.468;2023-04-03T10:28:30;5.90;1.00
8563;DHT22;16392;52.508;13.468;2023-04-03T10:30:58;6.00;1.00
8563;DHT22;16392;52.508;13.468;2023-04-03T10:33:35;5.90;1.00
8563;DHT22;16392;52.508;13.468;2023-04-03T10:36:06;6.10;1.00
8563;DHT22;16392;52.508;13.468;2023-04-03T10:38:39;5.90;1.00
8563;DHT22;16392;52.508;13.468;2023-04-03T10:41:09;5.60;1.00
8563;DHT22;16392;52.508;13.468;2023-04-03T10:43:39;5.70;1.00
8563;DHT22;16392;52.508;13.468;2023-04-03T10:46:09;5.50;1.00
8563;DHT22;16392;52.508;13.468;2023-04-03T10:48:46;5.70;1.00
8563;DHT22;16392;52.508;13.468;2023-04-03T10:51:17;5.40;1.00
8563;DHT22;16392;52.508;13.468;2023-04-03T10:53:50;5.60;1.00
8563;DHT22;16392;52.508;13.468;2023-04-03T10:56:18;5.90;1.00
8563;DHT22;16392;52.508;13.468;2023-04-03T10:58:48;6.20;1.00
8563;DHT22;16392;52.508;13.468;2023-04-03T11:01:16;6.00;1.00
8563;DHT22;16392;52.508;13.468;2023-04-03T11:03:47;5.60;1.00
8563;DHT22;16392;52.508;13.468;2023-04-03T11:06:17;5.80;1.00
8563;DHT22;16392;52.508;13.468;2023-04-03T11:08:48;5.90;1.00
8563;DHT22;16392;52.508;13.468;2023-04-03T11:11:17;5.90;1.00
8563;DHT22;16392;52.508;13.468;2023-04-03T11:13:50;5.50;1.00
8563;DHT22;16392;52.508;13.468;2023-04-03T11:16:19;5.70;1.00
8563;DHT22;16392;52.508;13.468;2023-04-03T11:18:49;5.70;1.00
8563;DHT22;16392;52.508;13.468;2023-04-03T11:21:19;6.00;1.00
8563;DHT22;16392;52.508;13.468;2023-04-03T11:23:47;6.30;1.00
8563;DHT22;16392;52.508;13.468;2023-04-03T11:26:15;6.30;1.00
8563;DHT22;16392;52.508;13.468;2023-04-03T11:28:42;5.90;1.00
8563;DHT22;16392;52.508;13.468;2023-04-03T11:31:15;6.00;1.00
8563;DHT22;16392;52.508;13.468;2023-04-03T11:33:52;6.00;1.00
8563;DHT22;16392;52.508;13.468;2023-04-03T11:36:22;6.00;1.00
8563;DHT22;16392;52.508;13.468;2023-04-03T11:38:51;5.90;1.00
8563;DHT22;16392;52.508;13.468;2023-04-03T11:41:23;5.80;1.00
8563;DHT22;16392;52.508;13.468;2023-04-03T11:43:55;6.20;1.00
8563;DHT22;16392;52.508;13.468;2023-04-03T11:46:22;6.20;1.00
8563;DHT22;16392;52.508;13.468;2023-04-03T11:49:14;6.00;1.00
8563;DHT22;16392;52.508;13.468;2023-04-03T11:52:03;6.10;1.00
8563;DHT22;16392;52.508;13.468;2023-04-03T11:54:48;6.10;1.00
8563;DHT22;16392;52.508;13.468;2023-04-03T12:00:00;6.10;1.00
8563;DHT22;16392;52.508;13.468;2023-04-03T12:02:34;5.80;1.00
8563;DHT22;16392;52.508;13.468;2023-04-03T12:07:53;5.80;1.00
8563;DHT22;16392;52.508;13.468;2023-04-03T12:10:41;5.80;1.00
8563;DHT22;16392;52.508;13.468;2023-04-03T12:13:13;6.10;1.00
8563;DHT22;16392;52.508;13.468;2023-04-03T12:18:40;6.20;1.00
8563;DHT22;16392;52.508;13.468;2023-04-03T12:21:07;6.30;1.00
8563;DHT22;16392;52.508;13.468;2023-04-03T12:23:34;6.20;1.00
8563;DHT22;16392;52.508;13.468;2023-04-03T12:26:05;6.50;1.00
8563;DHT22;16392;52.508;13.468;2023-04-03T12:28:36;6.60;1.00
8563;DHT22;16392;52.508;13.468;2023-04-03T12:31:04;6.50;1.00
8563;DHT22;16392;52.508;13.468;2023-04-03T12:33:36;6.20;1.00
8563;DHT22;16392;52.508;13.468;2023-04-03T12:36:07;6.60;1.00
8563;DHT22;16392;52.508;13.468;2023-04-03T12:38:41;6.30;1.00
8563;DHT22;16392;52.508;13.468;2023-04-03T12:44:03;6.20;99.90
8563;DHT22;16392;52.508;13.468;2023-04-03T12:46:34;6.40;99.90
8563;DHT22;16392;52.508;13.468;2023-04-03T12:49:05;6.40;99.90
8563;DHT22;16392;52.508;13.468;2023-04-03T12:51:39;6.10;99.90
8563;DHT22;16392;52.508;13.468;2023-04-03T12:54:12;6.40;1.00
8563;DHT22;16392;52.508;13.468;2023-04-03T12:56:39;6.50;1.00
8563;DHT22;16392;52.508;13.468;2023-04-03T12:59:15;6.70;1.00
8563;DHT22;16392;52.508;13.468;2023-04-03T13:01:42;7.10;1.00
8563;DHT22;16392;52.508;13.468;2023-04-03T13:04:09;6.80;99.90
8563;DHT22;16392;52.508;13.468;2023-04-03T13:06:38;6.60;99.90
8563;DHT22;16392;52.508;13.468;2023-04-03T13:09:05;6.50;99.90
8563;DHT22;16392;52.508;13.468;2023-04-03T13:11:33;6.50;99.90
8563;DHT22;16392;52.508;13.468;2023-04-03T13:14:03;6.50;99.90
8563;DHT22;16392;52.508;13.468;2023-04-03T13:16:32;6.30;1.00
8563;DHT22;16392;52.508;13.468;2023-04-03T13:18:59;6.50;1.00
8563;DHT22;16392;52.508;13.468;2023-04-03T13:21:26;6.80;1.00
8563;DHT22;16392;52.508;13.468;2023-04-03T13:23:54;6.70;1.00
8563;DHT22;16392;52.508;13.468;2023-04-03T13:26:21;6.60;1.00
8563;DHT22;16392;52.508;13.468;2023-04-03T13:28:48;6.10;1.00
8563;DHT22;16392;52.508;13.468;2023-04-03T13:31:18;6.00;1.00
8563;DHT22;16392;52.508;13.468;2023-04-03T13:33:52;5.80;1.00
8563;DHT22;16392;52.508;13.468;2023-04-03T13:36:21;5.60;1.00
8563;DHT22;16392;52.508;13.468;2023-04-03T13:38:57;5.50;1.00
8563;DHT22;16392;52.508;13.468;2023-04-03T13:41:24;5.60;1.00
8563;DHT22;16392;52.508;13.468;2023-04-03T13:43:51;5.60;1.00
8563;DHT22;16392;52.508;13.468;2023-04-03T13:46:22;5.60;1.00
8563;DHT22;16392;52.508;13.468;2023-04-03T13:48:50;5.60;1.00
8563;DHT22;16392;52.508;13.468;2023-04-03T13:51:20;5.70;1.00
8563;DHT22;16392;52.508;13.468;2023-04-03T13:53:48;5.60;1.00
8563;DHT22;16392;52.508;13.468;2023-04-03T13:56:17;5.90;1.00
8563;DHT22;16392;52.508;13.468;2023-04-03T13:58:54;6.10;1.00
8563;DHT22;16392;52.508;13.468;2023-04-03T14:01:21;5.90;1.00
8563;DHT22;16392;52.508;13.468;2023-04-03T14:03:52;5.80;1.00
8563;DHT22;16392;52.508;13.468;2023-04-03T14:06:20;6.00;1.00
8563;DHT22;16392;52.508;13.468;2023-04-03T14:08:47;6.20;1.00
8563;DHT22;16392;52.508;13.468;2023-04-03T14:11:15;6.30;1.00
8563;DHT22;16392;52.508;13.468;2023-04-03T14:13:42;6.50;1.00
8563;DHT22;16392;52.508;13.468;2023-04-03T14:16:11;6.70;1.00
8563;DHT22;16392;52.508;13.468;2023-04-03T14:18:38;6.80;1.00
8563;DHT22;16392;52.508;13.468;2023-04-03T14:21:05;6.60;1.00
8563;DHT22;16392;52.508;13.468;2023-04-03T14:23:33;6.30;1.00
8563;DHT22;16392;52.508;13.468;2023-04-03T14:26:00;6.40;1.00
8563;DHT22;16392;52.508;13.468;2023-04-03T14:28:27;6.10;1.00
8563;DHT22;16392;52.508;13.468;2023-04-03T14:30:53;6.70;1.00
8563;DHT22;16392;52.508;13.468;2023-04-03T14:33:20;7.40;1.00
8563;DHT22;16392;52.508;13.468;2023-04-03T14:35:47;7.40;1.00
8563;DHT22;16392;52.508;13.468;2023-04-03T14:38:20;7.10;1.00
8563;DHT22;16392;52.508;13.468;2023-04-03T14:40:48;6.50;1.00
8563;DHT22;16392;52.508;13.468;2023-04-03T14:43:15;6.00;1.00
8563;DHT22;16392;52.508;13.468;2023-04-03T14:45:43;5.80;1.00
8563;DHT22;16392;52.508;13.468;2023-04-03T14:48:09;5.60;1.00
8563;DHT22;16392;52.508;13.468;2023-04-03T14:50:38;5.70;1.00
8563;DHT22;16392;52.508;13.468;2023-04-03T14:53:04;5.80;1.00
8563;DHT22;16392;52.508;13.468;2023-04-03T14:55:31;5.90;1.00
8563;DHT22;16392;52.508;13.468;2023-04-03T14:57:59;5.80;1.00
8563;DHT22;16392;52.508;13.468;2023-04-03T15:00:25;5.70;1.00
8563;DHT22;16392;52.508;13.468;2023-04-03T15:02:53;5.50;1.00
8563;DHT22;16392;52.508;13.468;2023-04-03T15:05:19;5.50;1.00
8563;DHT22;16392;52.508;13.468;2023-04-03T15:07:47;5.30;1.00
8563;DHT22;16392;52.508;13.468;2023-04-03T15:10:15;5.10;1.00
8563;DHT22;16392;52.508;13.468;2023-04-03T15:12:42;5.10;1.00
8563;DHT22;16392;52.508;13.468;2023-04-03T15:15:11;5.10;1.00
8563;DHT22;16392;52.508;13.468;2023-04-03T15:17:37;5.20;1.00
8563;DHT22;16392;52.508;13.468;2023-04-03T15:20:06;5.00;1.00
8563;DHT22;16392;52.508;13.468;2023-04-03T15:22:37;5.00;1.00
8563;DHT22;16392;52.508;13.468;2023-04-03T15:25:04;5.00;1.00
8563;DHT22;16392;52.508;13.468;2023-04-03T15:27:31;5.00;1.00
8563;DHT22;16392;52.508;13.468;2023-04-03T15:29:57;4.90;1.00
8563;DHT22;16392;52.508;13.468;2023-04-03T15:32:26;4.90;1.00
8563;DHT22;16392;52.508;13.468;2023-04-03T15:34:52;5.00;1.00
8563;DHT22;16392;52.508;13.468;2023-04-03T15:37:19;4.90;1.00
8563;DHT22;16392;52.508;13.468;2023-04-03T15:39:46;5.00;1.00
8563;DHT22;16392;52.508;13.468;2023-04-03T15:42:12;4.90;1.00
8563;DHT22;16392;52.508;13.468;2023-04-03T15:44:39;4.90;1.00
8563;DHT22;16392;52.508;13.468;2023-04-03T15:47:06;5.00;1.00
8563;DHT22;16392;52.508;13.468;2023-04-03T15:49:34;5.10;1.00
8563;DHT22;16392;52.508;13.468;2023-04-03T15:52:01;5.20;1.00
8563;DHT22;16392;52.508;13.468;2023-04-03T15:54:28;5.00;1.00
8563;DHT22;16392;52.508;13.468;2023-04-03T15:56:55;4.80;1.00
8563;DHT22;16392;52.508;13.468;2023-04-03T15:59:22;4.70;1.00
8563;DHT22;16392;52.508;13.468;2023-04-03T16:01:48;4.70;1.00
8563;DHT22;16392;52.508;13.468;2023-04-03T16:04:15;4.70;1.00
8563;DHT22;16392;52.508;13.468;2023-04-03T16:06:43;4.60;1.00
8563;DHT22;16392;52.508;13.468;2023-04-03T16:09:10;4.80;1.00
8563;DHT22;16392;52.508;13.468;2023-04-03T16:11:36;4.90;1.00
8563;DHT22;16392;52.508;13.468;2023-04-03T16:14:04;5.00;1.00
8563;DHT22;16392;52.508;13.468;2023-04-03T16:16:31;5.00;1.00